createdAt,value
2018-03-11T00:00:45.692Z,74.60
2018-03-11T00:01:34.736Z,75.29
2018-03-11T00:02:23.783Z,75.27
2018-03-11T00:03:12.847Z,75.55
2018-03-11T00:04:01.909Z,75.64
2018-03-11T00:04:50.950Z,75.18
2018-03-11T00:05:40.001Z,74.87
2018-03-11T00:06:29.060Z,74.89
2018-03-11T00:07:18.153Z,75.66
2018-03-11T00:08:07.194Z,75.98
2018-03-11T00:08:56.227Z,76.13
2018-03-11T00:09:45.279Z,75.86
2018-03-11T00:10:34.312Z,75.74
2018-03-11T00:11:23.346Z,75.75
2018-03-11T00:12:12.383Z,76.14
2018-03-11T00:13:01.800Z,75.50
2018-03-11T00:13:50.840Z,74.79
2018-03-11T00:14:40.536Z,74.50
2018-03-11T00:15:29.552Z,74.18
2018-03-11T00:16:18.593Z,74.00
2018-03-11T00:17:07.668Z,74.11
2018-03-11T00:17:56.704Z,74.09
2018-03-11T00:18:45.810Z,74.30
2018-03-11T00:19:34.869Z,74.36
2018-03-11T00:20:23.924Z,74.26
2018-03-11T00:21:12.974Z,74.28
2018-03-11T00:22:02.048Z,74.47
2018-03-11T00:22:51.110Z,74.74
2018-03-11T00:23:40.222Z,74.46
2018-03-11T00:24:29.267Z,74.18
2018-03-11T00:25:18.310Z,73.83
2018-03-11T00:26:07.360Z,73.43
2018-03-11T00:26:56.406Z,73.44
2018-03-11T00:27:45.505Z,73.42
2018-03-11T00:28:34.560Z,74.20
2018-03-11T00:29:23.612Z,74.63
2018-03-11T00:30:12.950Z,74.91
2018-03-11T00:31:02.010Z,75.65
2018-03-11T00:31:51.053Z,75.84
2018-03-11T00:32:40.171Z,76.32
2018-03-11T00:33:29.219Z,76.72
2018-03-11T00:34:18.269Z,77.02
2018-03-11T00:35:07.313Z,76.63
2018-03-11T00:35:56.838Z,76.14
2018-03-11T00:36:45.896Z,76.08
2018-03-11T00:37:34.985Z,75.92
2018-03-11T00:38:24.038Z,75.80
2018-03-11T00:39:13.088Z,75.88
2018-03-11T00:40:02.142Z,75.99
2018-03-11T00:40:51.390Z,76.50
2018-03-11T00:41:40.482Z,76.73
2018-03-11T00:42:29.533Z,76.64
2018-03-11T00:43:18.598Z,76.58
2018-03-11T00:44:07.660Z,77.15
2018-03-11T00:44:56.733Z,77.39
2018-03-11T00:45:45.785Z,77.53
2018-03-11T00:46:34.850Z,77.49
2018-03-11T00:47:23.996Z,76.94
2018-03-11T00:48:13.033Z,77.09
2018-03-11T00:49:02.130Z,77.05
2018-03-11T00:49:51.185Z,76.72
2018-03-11T00:50:40.302Z,76.25
2018-03-11T00:51:29.347Z,76.59
2018-03-11T00:52:18.392Z,76.59
2018-03-11T00:53:07.808Z,76.55
2018-03-11T00:53:56.851Z,76.83
2018-03-11T00:54:45.883Z,77.33
2018-03-11T00:55:34.934Z,77.96
2018-03-11T00:56:23.976Z,78.51
2018-03-11T00:57:13.038Z,79.42
2018-03-11T00:58:02.129Z,79.95
2018-03-11T00:58:51.177Z,80.10
2018-03-11T00:59:40.228Z,80.64
2018-03-11T01:00:29.264Z,80.96
2018-03-11T01:01:18.545Z,81.11
2018-03-11T01:02:07.592Z,81.13
2018-03-11T01:02:56.648Z,81.21
2018-03-11T01:03:46.054Z,81.10
2018-03-11T01:04:35.100Z,81.07
2018-03-11T01:05:24.154Z,81.06
2018-03-11T01:06:13.255Z,80.83
2018-03-11T01:07:02.291Z,80.35
2018-03-11T01:07:51.359Z,80.16
2018-03-11T01:08:40.414Z,80.08
2018-03-11T01:09:29.955Z,80.18
2018-03-11T01:10:18.997Z,79.83
2018-03-11T01:11:08.043Z,79.78
2018-03-11T01:11:57.084Z,79.29
2018-03-11T01:12:46.167Z,78.56
2018-03-11T01:13:35.226Z,78.38
2018-03-11T01:14:24.266Z,78.40
2018-03-11T01:15:13.320Z,78.65
2018-03-11T01:16:02.372Z,78.72
2018-03-11T01:16:51.415Z,79.12
2018-03-11T01:17:40.469Z,78.56
2018-03-11T01:18:29.568Z,78.16
2018-03-11T01:19:18.609Z,77.77
2018-03-11T01:20:07.660Z,77.33
2018-03-11T01:20:56.691Z,77.04
2018-03-11T01:21:45.784Z,76.93
2018-03-11T01:22:34.924Z,76.97
2018-03-11T01:23:23.974Z,76.54
2018-03-11T01:24:13.019Z,76.28
2018-03-11T01:25:02.070Z,76.19
2018-03-11T01:25:51.117Z,76.23
2018-03-11T01:26:40.151Z,76.38
2018-03-11T01:27:29.205Z,76.09
2018-03-11T01:28:18.324Z,76.03
2018-03-11T01:29:07.383Z,75.81
2018-03-11T01:29:56.739Z,75.51
2018-03-11T01:30:45.784Z,75.13
2018-03-11T01:31:34.833Z,74.98
2018-03-11T01:32:23.869Z,75.05
2018-03-11T01:33:12.920Z,75.07
2018-03-11T01:34:02.394Z,75.29
2018-03-11T01:34:51.452Z,75.82
2018-03-11T01:35:40.500Z,75.49
2018-03-11T01:36:29.559Z,75.80
2018-03-11T01:37:18.614Z,76.19
2018-03-11T01:38:07.653Z,75.70
2018-03-11T01:38:56.794Z,75.25
2018-03-11T01:39:45.886Z,75.60
2018-03-11T01:40:34.928Z,75.37
2018-03-11T01:41:23.970Z,75.12
2018-03-11T01:42:13.008Z,74.95
2018-03-11T01:43:02.052Z,75.05
2018-03-11T01:43:51.097Z,74.99
2018-03-11T01:44:40.189Z,75.09
2018-03-11T01:45:29.238Z,75.10
2018-03-11T01:46:18.287Z,75.22
2018-03-11T01:47:07.326Z,75.85
2018-03-11T01:47:56.377Z,75.81
2018-03-11T01:48:45.420Z,75.48
2018-03-11T01:49:34.466Z,74.85
2018-03-11T01:50:23.557Z,74.67
2018-03-11T01:51:12.595Z,74.46
2018-03-11T01:52:01.635Z,74.37
2018-03-11T01:53:02.513Z,74.63
2018-03-11T01:53:51.958Z,74.47
2018-03-11T01:54:41.005Z,74.63
2018-03-11T01:55:30.149Z,74.76
2018-03-11T01:56:19.388Z,74.79
2018-03-11T01:57:08.434Z,75.02
2018-03-11T01:57:57.492Z,74.94
2018-03-11T01:58:46.531Z,74.58
2018-03-11T01:59:35.580Z,74.64
2018-03-11T02:00:24.642Z,74.77
2018-03-11T02:01:14.215Z,75.07
2018-03-11T02:02:03.287Z,75.19
2018-03-11T02:02:52.339Z,75.01
2018-03-11T02:03:41.440Z,74.77
2018-03-11T02:04:30.565Z,74.93
2018-03-11T02:05:19.614Z,75.72
2018-03-11T02:06:08.662Z,75.79
2018-03-11T02:06:57.713Z,75.74
2018-03-11T02:07:46.780Z,75.58
2018-03-11T02:08:35.832Z,75.59
2018-03-11T02:09:24.879Z,75.57
2018-03-11T02:10:13.962Z,75.87
2018-03-11T02:11:03.144Z,75.82
2018-03-11T02:11:52.420Z,75.35
2018-03-11T02:12:41.453Z,75.28
2018-03-11T02:13:30.487Z,75.42
2018-03-11T02:14:19.549Z,75.33
2018-03-11T02:15:08.589Z,75.67
2018-03-11T02:15:57.709Z,76.11
2018-03-11T02:16:46.756Z,75.94
2018-03-11T02:17:35.828Z,76.04
2018-03-11T02:18:25.201Z,76.06
2018-03-11T02:19:14.248Z,76.59
2018-03-11T02:20:03.396Z,77.18
2018-03-11T02:20:52.427Z,77.64
2018-03-11T02:21:41.485Z,77.87
2018-03-11T02:22:30.542Z,78.47
2018-03-11T02:23:19.721Z,79.11
2018-03-11T02:24:08.756Z,79.30
2018-03-11T02:24:57.805Z,79.82
2018-03-11T02:25:46.863Z,80.29
2018-03-11T02:26:35.908Z,80.84
2018-03-11T02:27:24.954Z,81.55
2018-03-11T02:28:13.990Z,81.79
2018-03-11T02:29:03.096Z,81.83
2018-03-11T02:29:52.147Z,82.62
2018-03-11T02:30:41.206Z,82.85
2018-03-11T02:31:30.402Z,83.14
2018-03-11T02:32:19.440Z,83.29
2018-03-11T02:33:08.519Z,83.08
2018-03-11T02:33:57.605Z,82.69
2018-03-11T02:34:46.656Z,82.45
2018-03-11T02:35:36.205Z,81.89
2018-03-11T02:36:25.258Z,80.99
2018-03-11T02:37:14.308Z,80.11
2018-03-11T02:38:03.355Z,79.76
2018-03-11T02:38:52.407Z,80.15
2018-03-11T02:39:41.555Z,80.46
2018-03-11T02:40:30.592Z,80.84
2018-03-11T02:41:19.650Z,80.53
2018-03-11T02:42:08.690Z,80.47
2018-03-11T02:42:57.736Z,80.22
2018-03-11T02:43:46.780Z,79.96
2018-03-11T02:44:35.830Z,79.90
2018-03-11T02:45:24.938Z,79.79
2018-03-11T02:46:13.980Z,79.36
2018-03-11T02:47:03.028Z,79.16
2018-03-11T02:47:52.085Z,78.97
2018-03-11T02:48:41.138Z,78.86
2018-03-11T02:49:30.169Z,78.28
2018-03-11T02:50:19.239Z,77.96
2018-03-11T02:51:08.685Z,77.70
2018-03-11T02:51:57.753Z,77.62
2018-03-11T02:52:46.801Z,77.64
2018-03-11T02:53:35.841Z,78.15
2018-03-11T02:54:24.882Z,77.90
2018-03-11T02:55:13.927Z,77.56
2018-03-11T02:56:03.112Z,77.09
2018-03-11T02:56:52.177Z,76.71
2018-03-11T02:57:41.234Z,76.64
2018-03-11T02:58:30.274Z,76.52
2018-03-11T02:59:19.324Z,76.17
2018-03-11T03:00:08.379Z,76.24
2018-03-11T03:00:57.435Z,76.46
2018-03-11T03:01:46.537Z,76.29
2018-03-11T03:02:35.594Z,76.33
2018-03-11T03:03:24.658Z,76.13
2018-03-11T03:04:13.703Z,76.05
2018-03-11T03:05:02.754Z,75.86
2018-03-11T03:05:51.795Z,75.66
2018-03-11T03:06:40.865Z,75.70
2018-03-11T03:07:30.367Z,75.88
2018-03-11T03:08:19.404Z,76.74
2018-03-11T03:09:08.444Z,76.98
2018-03-11T03:09:57.488Z,76.57
2018-03-11T03:10:46.519Z,76.27
2018-03-11T03:11:35.565Z,76.42
2018-03-11T03:12:24.653Z,76.48
2018-03-11T03:13:14.496Z,76.50
2018-03-11T03:14:03.555Z,77.61
2018-03-11T03:14:52.733Z,78.00
2018-03-11T03:15:41.793Z,78.54
2018-03-11T03:16:30.830Z,78.42
2018-03-11T03:17:19.920Z,78.46
2018-03-11T03:18:08.962Z,78.31
2018-03-11T03:18:57.996Z,78.26
2018-03-11T03:19:47.046Z,78.12
2018-03-11T03:20:36.083Z,77.51
2018-03-11T03:21:25.139Z,77.42
2018-03-11T03:22:14.566Z,77.93
2018-03-11T03:23:03.630Z,78.30
2018-03-11T03:23:52.703Z,77.52
2018-03-11T03:24:41.751Z,77.30
2018-03-11T03:25:30.792Z,76.92
2018-03-11T03:26:19.842Z,76.72
2018-03-11T03:27:08.895Z,77.04
2018-03-11T03:27:58.509Z,78.07
2018-03-11T03:28:47.784Z,79.20
2018-03-11T03:29:36.817Z,79.98
2018-03-11T03:30:25.909Z,80.68
2018-03-11T03:31:14.953Z,81.07
2018-03-11T03:32:03.998Z,81.33
2018-03-11T03:32:53.080Z,81.12
2018-03-11T03:33:42.126Z,80.84
2018-03-11T03:34:31.164Z,80.71
2018-03-11T03:35:20.216Z,79.99
2018-03-11T03:36:09.272Z,79.54
2018-03-11T03:36:58.303Z,79.26
2018-03-11T03:37:47.343Z,78.85
2018-03-11T03:38:36.516Z,79.01
2018-03-11T03:39:25.575Z,78.67
2018-03-11T03:40:14.617Z,78.56
2018-03-11T03:41:03.654Z,78.07
2018-03-11T03:41:52.691Z,77.74
2018-03-11T03:42:41.755Z,77.49
2018-03-11T03:43:30.806Z,76.95
2018-03-11T03:44:20.144Z,77.12
2018-03-11T03:45:09.183Z,76.94
2018-03-11T03:45:58.264Z,76.90
2018-03-11T03:46:47.313Z,76.73
2018-03-11T03:47:36.355Z,76.81
2018-03-11T03:48:25.405Z,76.90
2018-03-11T03:49:14.449Z,77.02
2018-03-11T03:50:03.521Z,76.82
2018-03-11T03:50:52.576Z,76.77
2018-03-11T03:51:41.664Z,77.00
2018-03-11T03:52:30.711Z,77.28
2018-03-11T03:53:19.754Z,76.82
2018-03-11T03:54:08.797Z,76.68
2018-03-11T03:54:57.890Z,76.35
2018-03-11T03:55:46.938Z,76.28
2018-03-11T03:56:35.980Z,76.35
2018-03-11T03:57:25.086Z,76.51
2018-03-11T03:58:14.122Z,76.61
2018-03-11T03:59:03.360Z,76.47
2018-03-11T03:59:52.408Z,76.44
2018-03-11T04:00:41.481Z,76.50
2018-03-11T04:01:30.534Z,76.51
2018-03-11T04:02:19.883Z,76.68
2018-03-11T04:03:09.829Z,76.42
2018-03-11T04:03:59.693Z,76.48
2018-03-11T04:04:48.745Z,76.94
2018-03-11T04:05:37.784Z,76.45
2018-03-11T04:06:26.856Z,76.46
2018-03-11T04:07:16.292Z,76.85
2018-03-11T04:08:05.805Z,76.72
2018-03-11T04:08:54.876Z,76.61
2018-03-11T04:09:43.920Z,76.37
2018-03-11T04:10:32.959Z,76.14
2018-03-11T04:11:22.043Z,76.94
2018-03-11T04:12:11.079Z,77.03
2018-03-11T04:13:00.119Z,77.01
2018-03-11T04:13:49.245Z,76.50
2018-03-11T04:14:38.284Z,76.72
2018-03-11T04:15:27.395Z,77.03
2018-03-11T04:16:16.440Z,77.30
2018-03-11T04:17:05.490Z,77.78
2018-03-11T04:17:54.550Z,77.71
2018-03-11T04:18:43.587Z,77.55
2018-03-11T04:19:32.774Z,77.28
2018-03-11T04:20:23.176Z,76.98
2018-03-11T04:21:13.912Z,76.74
2018-03-11T04:22:02.965Z,76.81
2018-03-11T04:22:51.999Z,76.77
2018-03-11T04:23:41.039Z,76.92
2018-03-11T04:24:30.073Z,76.62
2018-03-11T04:25:19.177Z,77.27
2018-03-11T04:26:08.213Z,76.87
2018-03-11T04:26:57.261Z,76.40
2018-03-11T04:27:47.165Z,76.05
2018-03-11T04:28:36.237Z,75.91
2018-03-11T04:29:25.279Z,75.80
2018-03-11T04:30:14.417Z,76.57
2018-03-11T04:31:03.997Z,76.88
2018-03-11T04:31:53.101Z,76.68
2018-03-11T04:32:42.136Z,76.53
2018-03-11T04:33:31.189Z,77.20
2018-03-11T04:34:20.310Z,77.46
2018-03-11T04:35:10.047Z,76.57
2018-03-11T04:35:59.205Z,76.26
2018-03-11T04:36:51.819Z,77.21
2018-03-11T04:37:41.445Z,77.66
2018-03-11T04:38:30.501Z,77.10
2018-03-11T04:39:19.540Z,76.69
2018-03-11T04:40:08.600Z,76.87
2018-03-11T04:40:57.645Z,77.14
2018-03-11T04:41:46.678Z,78.04
2018-03-11T04:42:35.737Z,78.01
2018-03-11T04:43:24.831Z,77.72
2018-03-11T04:44:13.883Z,77.36
2018-03-11T04:45:02.926Z,77.27
2018-03-11T04:45:52.030Z,77.67
2018-03-11T04:46:41.077Z,78.38
2018-03-11T04:47:30.116Z,78.71
2018-03-11T04:48:19.170Z,78.51
2018-03-11T04:49:08.664Z,78.43
2018-03-11T04:49:57.736Z,78.34
2018-03-11T04:50:46.783Z,78.20
2018-03-11T04:51:35.831Z,78.11
2018-03-11T04:52:24.975Z,77.87
2018-03-11T04:53:14.018Z,77.73
2018-03-11T04:54:03.051Z,77.46
2018-03-11T04:54:52.822Z,78.16
2018-03-11T04:55:42.007Z,78.17
2018-03-11T04:56:31.057Z,78.21
2018-03-11T04:57:20.194Z,78.68
2018-03-11T04:58:09.264Z,78.65
2018-03-11T04:58:58.317Z,78.94
2018-03-11T04:59:47.372Z,79.25
2018-03-11T05:00:36.422Z,79.55
2018-03-11T05:01:25.522Z,79.45
2018-03-11T05:02:14.579Z,79.59
2018-03-11T05:03:03.624Z,79.62
2018-03-11T05:03:52.669Z,79.42
2018-03-11T05:04:41.717Z,79.43
2018-03-11T05:05:30.772Z,79.16
2018-03-11T05:06:19.827Z,79.37
2018-03-11T05:07:11.849Z,79.44
2018-03-11T05:08:00.928Z,78.81
2018-03-11T05:08:49.981Z,79.15
2018-03-11T05:09:39.022Z,79.27
2018-03-11T05:10:28.054Z,79.67
2018-03-11T05:11:17.101Z,79.45
2018-03-11T05:12:06.150Z,79.18
2018-03-11T05:12:55.201Z,79.15
2018-03-11T05:13:44.262Z,78.89
2018-03-11T05:14:33.369Z,78.88
2018-03-11T05:15:22.414Z,79.41
2018-03-11T05:16:11.511Z,78.39
2018-03-11T05:17:00.566Z,78.11
2018-03-11T05:17:49.607Z,77.13
2018-03-11T05:18:38.654Z,76.68
2018-03-11T05:19:27.716Z,76.63
2018-03-11T05:20:16.756Z,76.79
2018-03-11T05:21:06.871Z,76.48
2018-03-11T05:21:55.922Z,76.33
2018-03-11T05:22:44.965Z,76.27
2018-03-11T05:23:34.014Z,75.84
2018-03-11T05:24:23.064Z,75.48
2018-03-11T05:25:12.103Z,74.80
2018-03-11T05:26:01.202Z,74.12
2018-03-11T05:26:50.281Z,74.42
2018-03-11T05:27:39.322Z,74.22
2018-03-11T05:28:28.366Z,73.99
2018-03-11T05:29:17.407Z,73.68
2018-03-11T05:30:06.449Z,73.82
2018-03-11T05:30:55.499Z,73.85
2018-03-11T05:31:44.567Z,73.22
2018-03-11T05:32:33.845Z,72.96
2018-03-11T05:33:22.936Z,72.90
2018-03-11T05:34:12.056Z,73.05
2018-03-11T05:35:01.118Z,72.95
2018-03-11T05:35:50.168Z,72.51
2018-03-11T05:36:39.290Z,72.84
2018-03-11T05:37:28.351Z,73.70
2018-03-11T05:38:17.392Z,74.11
2018-03-11T05:39:06.451Z,74.39
2018-03-11T05:39:55.596Z,73.87
2018-03-11T05:40:44.648Z,73.64
2018-03-11T05:41:33.711Z,73.36
2018-03-11T05:42:22.763Z,72.69
2018-03-11T05:43:11.820Z,72.93
2018-03-11T05:44:00.872Z,73.14
2018-03-11T05:44:49.922Z,73.38
2018-03-11T05:45:39.056Z,73.19
2018-03-11T05:46:28.099Z,73.16
2018-03-11T05:47:17.344Z,73.02
2018-03-11T05:48:06.408Z,72.80
2018-03-11T05:48:55.494Z,72.29
2018-03-11T05:49:44.530Z,72.10
2018-03-11T05:50:33.576Z,71.92
2018-03-11T05:51:22.679Z,71.40
2018-03-11T05:52:11.830Z,70.81
2018-03-11T05:53:01.098Z,70.62
2018-03-11T05:53:50.157Z,70.52
2018-03-11T05:54:39.200Z,70.40
2018-03-11T05:55:28.254Z,70.15
2018-03-11T05:56:17.300Z,70.27
2018-03-11T05:57:06.793Z,70.43
2018-03-11T05:57:55.851Z,70.58
2018-03-11T05:58:44.895Z,70.25
2018-03-11T05:59:34.055Z,70.01
2018-03-11T06:00:23.377Z,69.75
2018-03-11T06:01:12.461Z,69.81
2018-03-11T06:02:01.500Z,69.19
2018-03-11T06:02:53.085Z,68.42
2018-03-11T06:03:42.157Z,68.37
2018-03-11T06:04:31.218Z,68.10
2018-03-11T06:05:20.333Z,67.58
2018-03-11T06:06:09.421Z,67.76
2018-03-11T06:06:58.485Z,67.14
2018-03-11T06:07:47.773Z,67.43
2018-03-11T06:08:36.822Z,66.63
2018-03-11T06:09:25.866Z,67.14
2018-03-11T06:10:14.958Z,66.91
2018-03-11T06:11:04.009Z,67.14
2018-03-11T06:11:53.073Z,67.09
2018-03-11T06:12:42.129Z,66.29
2018-03-11T06:13:31.207Z,66.91
2018-03-11T06:14:20.271Z,66.86
2018-03-11T06:15:09.352Z,67.48
2018-03-11T06:15:58.865Z,66.86
2018-03-11T06:16:47.958Z,68.17
2018-03-11T06:17:37.053Z,68.49
2018-03-11T06:18:26.116Z,69.09
2018-03-11T06:19:15.154Z,69.83
2018-03-11T06:20:04.238Z,69.54
2018-03-11T06:20:53.295Z,69.56
2018-03-11T06:21:42.360Z,69.84
2018-03-11T06:22:31.459Z,69.19
2018-03-11T06:23:20.509Z,69.39
2018-03-11T06:24:10.643Z,68.32
2018-03-11T06:24:59.684Z,68.21
2018-03-11T06:25:48.731Z,67.71
2018-03-11T06:26:37.786Z,67.98
2018-03-11T06:27:26.860Z,67.41
2018-03-11T06:28:15.921Z,67.03
2018-03-11T06:29:05.083Z,67.53
2018-03-11T06:29:54.235Z,67.89
2018-03-11T06:30:43.284Z,68.27
2018-03-11T06:31:32.346Z,66.85
2018-03-11T06:32:21.415Z,66.55
2018-03-11T06:33:11.409Z,66.45
2018-03-11T06:34:00.467Z,66.81
2018-03-11T06:34:49.512Z,65.46
2018-03-11T06:35:40.414Z,65.52
2018-03-11T06:36:29.454Z,64.73
2018-03-11T06:37:18.495Z,63.90
2018-03-11T06:38:07.556Z,63.62
2018-03-11T06:38:56.705Z,63.46
2018-03-11T06:39:45.739Z,63.23
2018-03-11T06:40:34.808Z,63.51
2018-03-11T06:41:23.868Z,63.39
2018-03-11T06:42:12.937Z,62.79
2018-03-11T06:43:01.995Z,62.28
2018-03-11T06:43:51.042Z,61.94
2018-03-11T06:44:40.145Z,61.84
2018-03-11T06:45:29.200Z,61.69
2018-03-11T06:46:18.257Z,61.22
2018-03-11T06:47:07.297Z,60.83
2018-03-11T06:47:56.339Z,59.39
2018-03-11T06:48:45.378Z,59.12
2018-03-11T06:49:34.490Z,58.38
2018-03-11T06:50:23.529Z,58.48
2018-03-11T06:51:12.592Z,58.38
2018-03-11T06:52:01.701Z,58.34
2018-03-11T06:52:50.752Z,58.38
2018-03-11T06:53:39.796Z,58.29
2018-03-11T06:54:28.850Z,57.39
2018-03-11T06:55:17.987Z,57.60
2018-03-11T06:56:07.039Z,56.54
2018-03-11T06:56:56.075Z,56.54
2018-03-11T06:57:45.125Z,56.82
2018-03-11T06:58:34.271Z,56.40
2018-03-11T06:59:23.318Z,56.65
2018-03-11T07:00:12.372Z,57.29
2018-03-11T07:01:01.477Z,57.66
2018-03-11T07:01:50.532Z,58.04
2018-03-11T07:02:39.605Z,58.95
2018-03-11T07:03:28.644Z,59.39
2018-03-11T07:04:17.682Z,60.38
2018-03-11T07:05:06.758Z,60.19
2018-03-11T07:05:55.800Z,59.92
2018-03-11T07:06:44.901Z,59.80
2018-03-11T07:07:33.981Z,59.58
2018-03-11T07:08:26.514Z,59.17
2018-03-11T07:09:15.632Z,58.66
2018-03-11T07:10:04.750Z,58.19
2018-03-11T07:10:53.836Z,58.07
2018-03-11T07:11:42.865Z,57.54
2018-03-11T07:12:32.205Z,57.42
2018-03-11T07:13:21.265Z,57.63
2018-03-11T07:14:10.307Z,57.11
2018-03-11T07:15:00.220Z,56.77
2018-03-11T07:15:49.492Z,57.07
2018-03-11T07:16:38.526Z,56.73
2018-03-11T07:17:27.629Z,56.28
2018-03-11T07:18:16.687Z,56.22
2018-03-11T07:19:05.769Z,56.48
2018-03-11T07:19:54.801Z,55.79
2018-03-11T07:20:43.952Z,55.46
2018-03-11T07:21:33.007Z,55.55
2018-03-11T07:22:22.087Z,56.03
2018-03-11T07:23:11.137Z,55.34
2018-03-11T07:24:00.192Z,55.05
2018-03-11T07:24:49.253Z,55.21
2018-03-11T07:25:38.291Z,55.68
2018-03-11T07:26:27.393Z,55.02
2018-03-11T07:27:16.434Z,55.11
2018-03-11T07:28:05.488Z,55.09
2018-03-11T07:28:54.540Z,55.01
2018-03-11T07:29:43.597Z,55.03
2018-03-11T07:30:32.642Z,55.53
2018-03-11T07:31:21.699Z,55.88
2018-03-11T07:32:10.776Z,55.13
2018-03-11T07:32:59.833Z,55.84
2018-03-11T07:33:48.872Z,55.45
2018-03-11T07:34:37.925Z,55.51
2018-03-11T07:35:27.005Z,54.89
2018-03-11T07:36:16.070Z,54.45
2018-03-11T07:37:05.114Z,54.20
2018-03-11T07:37:54.679Z,54.07
2018-03-11T07:38:43.748Z,54.30
2018-03-11T07:39:32.802Z,53.33
2018-03-11T07:40:21.852Z,53.40
2018-03-11T07:41:10.890Z,53.09
2018-03-11T07:41:59.941Z,53.84
2018-03-11T07:42:49.046Z,54.10
2018-03-11T07:43:38.082Z,54.01
2018-03-11T07:44:28.325Z,54.09
2018-03-11T07:45:18.337Z,54.42
2018-03-11T07:46:07.922Z,54.66
2018-03-11T07:46:57.070Z,53.92
2018-03-11T07:47:47.117Z,53.69
2018-03-11T07:48:36.916Z,54.12
2018-03-11T07:49:26.183Z,54.43
2018-03-11T07:50:15.949Z,54.22
2018-03-11T07:51:06.244Z,54.24
2018-03-11T07:51:57.193Z,53.69
2018-03-11T07:52:46.395Z,53.15
2018-03-11T07:53:35.558Z,53.28
2018-03-11T07:54:24.646Z,52.39
2018-03-11T07:55:13.700Z,52.39
2018-03-11T07:56:02.742Z,52.20
2018-03-11T07:56:51.840Z,51.91
2018-03-11T07:57:40.919Z,51.64
2018-03-11T07:58:29.959Z,52.45
2018-03-11T07:59:19.015Z,52.92
2018-03-11T08:00:08.295Z,53.48
2018-03-11T08:00:57.341Z,53.15
2018-03-11T08:01:46.395Z,52.21
2018-03-11T08:02:35.459Z,51.36
2018-03-11T08:03:24.515Z,51.78
2018-03-11T08:04:13.568Z,51.54
2018-03-11T08:05:02.635Z,50.60
2018-03-11T08:05:51.928Z,49.40
2018-03-11T08:06:40.983Z,49.53
2018-03-11T08:07:30.066Z,49.41
2018-03-11T08:08:19.119Z,49.78
2018-03-11T08:09:08.194Z,49.98
2018-03-11T08:09:57.253Z,49.42
2018-03-11T08:10:46.308Z,49.50
2018-03-11T08:11:35.428Z,49.49
2018-03-11T08:12:24.476Z,49.97
2018-03-11T08:13:13.637Z,49.20
2018-03-11T08:14:02.700Z,49.57
2018-03-11T08:14:51.746Z,49.47
2018-03-11T08:15:40.815Z,49.23
2018-03-11T08:16:29.863Z,49.25
2018-03-11T08:17:18.933Z,48.98
2018-03-11T08:18:07.988Z,49.45
2018-03-11T08:18:57.095Z,51.07
2018-03-11T08:19:46.149Z,50.00
2018-03-11T08:20:35.289Z,49.94
2018-03-11T08:21:24.474Z,50.38
2018-03-11T08:22:13.539Z,49.91
2018-03-11T08:23:02.590Z,49.30
2018-03-11T08:23:51.992Z,48.38
2018-03-11T08:24:41.388Z,49.06
2018-03-11T08:25:30.441Z,49.31
2018-03-11T08:26:19.488Z,47.34
2018-03-11T08:27:08.716Z,48.47
2018-03-11T08:27:57.795Z,47.97
2018-03-11T08:28:46.860Z,48.06
2018-03-11T08:29:36.223Z,48.05
2018-03-11T08:30:25.271Z,47.91
2018-03-11T08:31:14.311Z,47.61
2018-03-11T08:32:03.375Z,47.65
2018-03-11T08:32:52.426Z,48.38
2018-03-11T08:33:41.467Z,48.06
2018-03-11T08:34:30.549Z,48.05
2018-03-11T08:35:19.596Z,48.00
2018-03-11T08:36:08.652Z,48.32
2018-03-11T08:36:57.716Z,47.14
2018-03-11T08:37:46.766Z,47.10
2018-03-11T08:38:35.849Z,46.79
2018-03-11T08:39:24.901Z,47.62
2018-03-11T08:40:14.000Z,47.68
2018-03-11T08:41:03.048Z,46.98
2018-03-11T08:41:52.144Z,46.90
2018-03-11T08:42:41.197Z,47.26
2018-03-11T08:43:30.243Z,47.01
2018-03-11T08:44:19.292Z,45.83
2018-03-11T08:45:08.656Z,45.08
2018-03-11T08:45:57.709Z,44.67
2018-03-11T08:46:46.755Z,44.77
2018-03-11T08:47:35.816Z,45.28
2018-03-11T08:48:24.895Z,44.93
2018-03-11T08:49:17.090Z,45.10
2018-03-11T08:50:06.141Z,44.99
2018-03-11T08:50:55.280Z,45.56
2018-03-11T08:51:44.330Z,45.11
2018-03-11T08:52:33.575Z,46.36
2018-03-11T08:53:22.637Z,45.65
2018-03-11T08:54:11.693Z,44.89
2018-03-11T08:55:00.747Z,45.11
2018-03-11T08:55:49.805Z,46.14
2018-03-11T08:56:38.918Z,46.11
2018-03-11T08:57:28.038Z,45.25
2018-03-11T08:58:17.064Z,46.11
2018-03-11T08:59:06.215Z,45.90
2018-03-11T08:59:55.287Z,45.19
2018-03-11T09:00:44.632Z,44.25
2018-03-11T09:01:34.617Z,44.47
2018-03-11T09:02:23.709Z,43.39
2018-03-11T09:03:12.761Z,43.75
2018-03-11T09:04:01.884Z,42.60
2018-03-11T09:04:50.953Z,43.25
2018-03-11T09:05:40.028Z,43.24
2018-03-11T09:06:29.096Z,42.69
2018-03-11T09:07:18.177Z,42.89
2018-03-11T09:08:07.293Z,43.06
2018-03-11T09:08:56.352Z,42.92
2018-03-11T09:09:45.535Z,43.70
2018-03-11T09:10:34.627Z,43.02
2018-03-11T09:11:23.721Z,44.15
2018-03-11T09:12:12.800Z,45.34
2018-03-11T09:13:01.874Z,42.75
2018-03-11T09:13:50.956Z,43.02
2018-03-11T09:14:40.000Z,43.36
2018-03-11T09:15:46.497Z,43.24
2018-03-11T09:16:35.562Z,43.23
2018-03-11T09:17:24.788Z,43.32
2018-03-11T09:18:13.847Z,43.43
2018-03-11T09:19:03.094Z,43.15
2018-03-11T09:19:52.493Z,42.49
2018-03-11T09:20:41.593Z,42.92
2018-03-11T09:21:30.643Z,42.85
2018-03-11T09:22:19.731Z,42.32
2018-03-11T09:23:08.862Z,40.80
2018-03-11T09:23:57.923Z,39.28
2018-03-11T09:24:46.984Z,39.95
2018-03-11T09:25:36.044Z,38.84
2018-03-11T09:26:25.122Z,40.02
2018-03-11T09:27:14.194Z,39.56
2018-03-11T09:28:03.274Z,40.03
2018-03-11T09:28:52.416Z,39.86
2018-03-11T09:29:41.554Z,40.82
2018-03-11T09:30:30.764Z,40.74
2018-03-11T09:31:19.889Z,40.41
2018-03-11T09:32:08.968Z,41.15
2018-03-11T09:32:58.021Z,41.71
2018-03-11T09:33:47.088Z,42.08
2018-03-11T09:34:36.150Z,41.49
2018-03-11T09:35:25.309Z,41.15
2018-03-11T09:36:14.363Z,41.46
2018-03-11T09:37:03.410Z,40.64
2018-03-11T09:37:52.462Z,40.50
2018-03-11T09:38:41.516Z,40.93
2018-03-11T09:39:30.559Z,40.94
2018-03-11T09:40:19.643Z,40.08
2018-03-11T09:41:10.621Z,41.22
2018-03-11T09:41:59.681Z,40.45
2018-03-11T09:42:48.726Z,41.11
2018-03-11T09:43:37.801Z,41.99
2018-03-11T09:44:26.852Z,38.62
2018-03-11T09:45:15.950Z,39.88
2018-03-11T09:46:05.075Z,41.15
2018-03-11T09:46:54.173Z,39.26
2018-03-11T09:47:43.224Z,38.70
2018-03-11T09:48:32.398Z,40.47
2018-03-11T09:49:21.452Z,39.80
2018-03-11T09:50:10.712Z,39.35
2018-03-11T09:50:59.909Z,38.79
2018-03-11T09:51:49.776Z,36.77
2018-03-11T09:52:40.117Z,37.09
2018-03-11T09:53:29.422Z,36.58
2018-03-11T09:54:18.593Z,36.84
2018-03-11T09:55:07.699Z,36.17
2018-03-11T09:55:56.825Z,35.64
2018-03-11T09:56:46.006Z,34.97
2018-03-11T09:57:35.061Z,35.22
2018-03-11T09:58:27.178Z,35.91
2018-03-11T09:59:16.346Z,36.35
2018-03-11T10:00:05.412Z,36.43
2018-03-11T10:00:54.493Z,37.36
2018-03-11T10:01:43.532Z,37.24
2018-03-11T10:02:32.580Z,35.87
2018-03-11T10:03:21.630Z,35.45
2018-03-11T10:04:10.676Z,36.75
2018-03-11T10:04:59.781Z,34.64
2018-03-11T10:05:49.501Z,35.79
2018-03-11T10:06:39.167Z,35.13
2018-03-11T10:07:28.235Z,35.76
2018-03-11T10:08:17.704Z,35.27
2018-03-11T10:09:07.065Z,33.84
2018-03-11T10:09:56.229Z,33.55
2018-03-11T10:10:45.287Z,33.11
2018-03-11T10:11:34.342Z,33.46
2018-03-11T10:12:23.380Z,34.96
2018-03-11T10:13:12.435Z,34.62
2018-03-11T10:14:01.499Z,33.33
2018-03-11T10:14:50.546Z,33.10
2018-03-11T10:15:39.847Z,34.03
2018-03-11T10:16:28.898Z,34.95
2018-03-11T10:17:17.957Z,34.94
2018-03-11T10:18:07.010Z,33.69
2018-03-11T10:18:56.047Z,32.98
2018-03-11T10:19:45.107Z,33.54
2018-03-11T10:20:34.159Z,32.34
2018-03-11T10:21:23.794Z,32.74
2018-03-11T10:22:12.836Z,32.89
2018-03-11T10:23:01.885Z,30.48
2018-03-11T10:23:50.931Z,30.44
2018-03-11T10:24:39.987Z,30.40
2018-03-11T10:25:29.038Z,31.24
2018-03-11T10:26:18.150Z,29.86
2018-03-11T10:27:07.197Z,30.45
2018-03-11T10:27:56.236Z,31.03
2018-03-11T10:28:45.278Z,31.23
2018-03-11T10:29:34.334Z,31.59
2018-03-11T10:30:23.412Z,31.22
2018-03-11T10:31:12.464Z,32.11
2018-03-11T10:32:01.564Z,30.29
2018-03-11T10:32:50.794Z,31.58
2018-03-11T10:33:40.041Z,31.89